Time;durP1;ratioP1;P1;durP2;ratioP2;P2;SDS_P1;SDS_P2;PMS_P1;PMS_P2;Temp;Humidity;BMP_temperature;BMP_pressure;BME280_temperature;BME280_humidity;BME280_pressure;Samples;Min_cycle;Max_cycle;Signal;HPM_P1;HPM_P2
2024/01/04 00:01:27;;;;;;;8.05;1.92;;;;;;;;;;5093667;28;20027;-32
2024/01/04 00:03:53;;;;;;;6.25;1.83;;;;;;;;;;5093877;28;20367;-32
2024/01/04 00:06:20;;;;;;;7.15;1.77;;;;;;;;;;5092467;28;20472;-32
2024/01/04 00:08:47;;;;;;;7.85;1.98;;;;;;;;;;5093693;28;20095;-32
2024/01/04 00:11:14;;;;;;;11.63;2.15;;;;;;;;;;5093522;28;20043;-32
2024/01/04 00:13:41;;;;;;;6.78;1.80;;;;;;;;;;5093556;28;20501;-32
2024/01/04 00:16:11;;;;;;;4.15;1.45;;;;;;;;;;5093379;28;20097;-32
2024/01/04 00:18:39;;;;;;;6.05;1.80;;;;;;;;;;5093523;28;20036;-32
2024/01/04 00:21:06;;;;;;;7.00;2.03;;;;;;;;;;5093408;28;20153;-32
2024/01/04 00:23:34;;;;;;;6.97;1.65;;;;;;;;;;5093423;28;20032;-32
2024/01/04 00:26:01;;;;;;;8.68;1.98;;;;;;;;;;5093288;28;20498;-32
2024/01/04 00:28:28;;;;;;;8.27;1.60;;;;;;;;;;5093384;28;20034;-32
2024/01/04 00:30:55;;;;;;;6.30;1.40;;;;;;;;;;5093199;28;20111;-32
2024/01/04 00:33:22;;;;;;;7.10;2.25;;;;;;;;;;5093210;28;20058;-32
2024/01/04 00:35:49;;;;;;;7.03;1.77;;;;;;;;;;5093183;28;20083;-32
2024/01/04 00:38:16;;;;;;;6.57;1.60;;;;;;;;;;5092835;28;20119;-32
2024/01/04 00:40:44;;;;;;;6.97;1.73;;;;;;;;;;5093045;28;20489;-32
2024/01/04 00:43:11;;;;;;;7.15;1.65;;;;;;;;;;5092891;28;20138;-32
2024/01/04 00:45:38;;;;;;;5.15;1.50;;;;;;;;;;5092815;28;20102;-32
2024/01/04 00:48:05;;;;;;;6.60;1.33;;;;;;;;;;5092802;28;20047;-32
2024/01/04 00:50:32;;;;;;;4.95;1.50;;;;;;;;;;5092819;28;20490;-32
2024/01/04 00:53:01;;;;;;;6.93;1.60;;;;;;;;;;5092700;28;20041;-32
2024/01/04 00:55:28;;;;;;;5.88;1.73;;;;;;;;;;5092516;28;20028;-32
2024/01/04 00:57:55;;;;;;;4.65;1.48;;;;;;;;;;5092700;28;20028;-32
2024/01/04 01:00:22;;;;;;;9.95;1.33;;;;;;;;;;5092657;28;20052;-32
2024/01/04 01:02:49;;;;;;;4.65;1.67;;;;;;;;;;5092755;28;20029;-32
2024/01/04 01:05:16;;;;;;;8.55;1.83;;;;;;;;;;5092643;28;20024;-32
2024/01/04 01:07:43;;;;;;;4.38;1.63;;;;;;;;;;5092549;28;20043;-32
2024/01/04 01:10:10;;;;;;;6.57;1.88;;;;;;;;;;5092391;28;20036;-32
2024/01/04 01:12:37;;;;;;;5.82;1.50;;;;;;;;;;5092421;28;20067;-32
2024/01/04 01:15:04;;;;;;;5.68;1.67;;;;;;;;;;5092270;28;20024;-32
2024/01/04 01:17:31;;;;;;;6.30;1.73;;;;;;;;;;5091901;28;20085;-32
2024/01/04 01:19:58;;;;;;;5.03;1.80;;;;;;;;;;5092269;28;20031;-32
2024/01/04 01:22:26;;;;;;;3.60;1.60;;;;;;;;;;5092287;28;20457;-32
2024/01/04 01:24:53;;;;;;;8.18;1.63;;;;;;;;;;5092120;28;20032;-32
2024/01/04 01:27:21;;;;;;;4.65;1.50;;;;;;;;;;5092232;28;20043;-32
2024/01/04 01:29:48;;;;;;;4.95;1.63;;;;;;;;;;5091954;28;20028;-32
2024/01/04 01:32:16;;;;;;;4.97;1.42;;;;;;;;;;5092142;28;20521;-32
2024/01/04 01:34:43;;;;;;;5.53;1.88;;;;;;;;;;5092094;28;20020;-32
2024/01/04 01:37:11;;;;;;;9.73;1.65;;;;;;;;;;5091967;28;20055;-32
2024/01/04 01:39:38;;;;;;;6.60;1.70;;;;;;;;;;5091786;28;20126;-32
2024/01/04 01:42:05;;;;;;;4.80;1.40;;;;;;;;;;5091984;28;20497;-32
2024/01/04 01:44:32;;;;;;;5.72;1.65;;;;;;;;;;5092005;28;20432;-32
2024/01/04 01:46:59;;;;;;;5.28;1.33;;;;;;;;;;5091725;28;20040;-32
2024/01/04 01:49:26;;;;;;;7.18;1.50;;;;;;;;;;5091778;28;20055;-32
2024/01/04 01:51:53;;;;;;;5.15;1.52;;;;;;;;;;5091870;28;20150;-32
2024/01/04 01:54:20;;;;;;;2.80;1.13;;;;;;;;;;5091864;28;20070;-32
2024/01/04 01:56:47;;;;;;;4.45;1.80;;;;;;;;;;5091762;28;20024;-32
2024/01/04 01:59:14;;;;;;;5.85;1.50;;;;;;;;;;5091674;28;20036;-32
2024/01/04 02:01:41;;;;;;;4.97;1.60;;;;;;;;;;5091754;28;20016;-32
2024/01/04 02:04:08;;;;;;;5.15;1.60;;;;;;;;;;5091732;28;20028;-32
2024/01/04 02:06:35;;;;;;;6.93;2.08;;;;;;;;;;5091669;28;20060;-33
2024/01/04 02:09:02;;;;;;;6.15;1.70;;;;;;;;;;5091693;28;20039;-33
2024/01/04 02:11:29;;;;;;;4.25;1.50;;;;;;;;;;5091406;28;20039;-33
2024/01/04 02:13:56;;;;;;;7.97;1.45;;;;;;;;;;5090718;28;20103;-33
2024/01/04 02:16:23;;;;;;;5.60;1.60;;;;;;;;;;5090567;28;20036;-33
2024/01/04 02:18:50;;;;;;;8.48;1.67;;;;;;;;;;5091019;28;20020;-34
2024/01/04 02:21:17;;;;;;;5.53;1.40;;;;;;;;;;5090911;28;20114;-33
2024/01/04 02:23:44;;;;;;;8.10;1.52;;;;;;;;;;5090830;28;20028;-33
2024/01/04 02:26:11;;;;;;;8.95;1.67;;;;;;;;;;5090914;28;20111;-34
2024/01/04 02:28:38;;;;;;;10.30;1.80;;;;;;;;;;5091601;28;20024;-33
2024/01/04 02:31:05;;;;;;;8.35;1.83;;;;;;;;;;5094763;28;20027;-33
2024/01/04 02:33:32;;;;;;;13.02;2.05;;;;;;;;;;5094914;28;20494;-33
2024/01/04 02:35:59;;;;;;;14.05;2.60;;;;;;;;;;5094904;28;20027;-33
2024/01/04 02:38:26;;;;;;;13.88;2.28;;;;;;;;;;5094653;28;20046;-34
2024/01/04 02:40:53;;;;;;;10.85;2.13;;;;;;;;;;5094426;28;20394;-33
2024/01/04 02:43:20;;;;;;;10.70;2.40;;;;;;;;;;5094072;28;20064;-33
2024/01/04 02:45:47;;;;;;;30.58;8.23;;;;;;;;;;5094374;28;20056;-33
2024/01/04 02:48:14;;;;;;;43.28;12.07;;;;;;;;;;5093647;28;20048;-33
2024/01/04 02:50:41;;;;;;;43.05;13.00;;;;;;;;;;5086467;28;20045;-33
2024/01/04 02:53:08;;;;;;;39.78;12.20;;;;;;;;;;5088825;28;20028;-33
2024/01/04 02:55:35;;;;;;;41.03;14.98;;;;;;;;;;5094894;28;20032;-32
2024/01/04 02:58:02;;;;;;;50.70;15.10;;;;;;;;;;5094506;28;20489;-33
2024/01/04 03:00:29;;;;;;;48.53;14.20;;;;;;;;;;5089090;28;20570;-33
2024/01/04 03:02:56;;;;;;;44.17;13.50;;;;;;;;;;5092187;28;20761;-33
2024/01/04 03:05:23;;;;;;;45.20;14.73;;;;;;;;;;5094565;28;20122;-34
2024/01/04 03:07:50;;;;;;;38.63;11.57;;;;;;;;;;5094529;28;20020;-34
2024/01/04 03:10:17;;;;;;;36.60;11.18;;;;;;;;;;5094261;28;20031;-32
2024/01/04 03:12:44;;;;;;;38.30;13.68;;;;;;;;;;5094481;28;20062;-33
2024/01/04 03:15:12;;;;;;;47.95;13.18;;;;;;;;;;5094226;28;20130;-33
2024/01/04 03:17:39;;;;;;;40.13;13.05;;;;;;;;;;5094326;28;20043;-34
2024/01/04 03:20:06;;;;;;;35.40;12.20;;;;;;;;;;5094242;28;20035;-32
2024/01/04 03:22:33;;;;;;;33.72;11.93;;;;;;;;;;5094276;28;20028;-33
2024/01/04 03:25:01;;;;;;;36.42;11.85;;;;;;;;;;5094089;28;20032;-33
2024/01/04 03:27:28;;;;;;;31.25;9.18;;;;;;;;;;5094199;28;20035;-32
2024/01/04 03:29:55;;;;;;;29.38;9.80;;;;;;;;;;5082943;28;20028;-33
2024/01/04 03:32:22;;;;;;;32.33;11.25;;;;;;;;;;5083535;28;20043;-32
2024/01/04 03:34:50;;;;;;;31.20;10.82;;;;;;;;;;5094194;28;20115;-33
2024/01/04 03:37:17;;;;;;;27.35;9.25;;;;;;;;;;5093874;28;20036;-32
2024/01/04 03:39:45;;;;;;;23.75;8.93;;;;;;;;;;5093503;28;20143;-33
2024/01/04 03:42:12;;;;;;;23.20;8.00;;;;;;;;;;5092963;28;20797;-34
2024/01/04 03:44:39;;;;;;;29.25;9.35;;;;;;;;;;5093610;28;20028;-34
2024/01/04 03:47:06;;;;;;;28.17;9.85;;;;;;;;;;5093157;28;20387;-33
2024/01/04 03:49:33;;;;;;;34.45;11.30;;;;;;;;;;5093185;28;20115;-33
2024/01/04 03:52:00;;;;;;;28.08;9.52;;;;;;;;;;5093350;28;20016;-34
2024/01/04 03:54:27;;;;;;;29.17;10.10;;;;;;;;;;5093184;28;20473;-32
2024/01/04 03:56:55;;;;;;;29.80;10.38;;;;;;;;;;5093093;28;20032;-34
2024/01/04 03:59:22;;;;;;;26.73;9.85;;;;;;;;;;5093249;28;20024;-32
2024/01/04 04:01:49;;;;;;;24.23;8.88;;;;;;;;;;5093237;28;20024;-33
2024/01/04 04:04:16;;;;;;;28.23;9.48;;;;;;;;;;5093152;28;20020;-33
2024/01/04 04:06:43;;;;;;;25.55;9.15;;;;;;;;;;5093255;28;20036;-33
2024/01/04 04:09:10;;;;;;;27.77;9.65;;;;;;;;;;5092643;28;20035;-33
2024/01/04 04:11:37;;;;;;;29.63;9.95;;;;;;;;;;5093095;28;20501;-33
2024/01/04 04:14:04;;;;;;;26.20;9.23;;;;;;;;;;5092888;28;20450;-33
2024/01/04 04:16:30;;;;;;;24.83;9.02;;;;;;;;;;5092767;28;20386;-33
2024/01/04 04:18:57;;;;;;;26.45;10.07;;;;;;;;;;5092917;28;20431;-34
2024/01/04 04:21:25;;;;;;;29.63;9.98;;;;;;;;;;5092832;28;20390;-34
2024/01/04 04:23:52;;;;;;;28.40;9.70;;;;;;;;;;5090036;28;20039;-33
2024/01/04 04:26:23;;;;;;;27.25;10.07;;;;;;;;;;5092727;28;20020;-32
2024/01/04 04:28:50;;;;;;;23.08;9.60;;;;;;;;;;5074804;28;20031;-33
2024/01/04 04:31:17;;;;;;;23.23;8.88;;;;;;;;;;5083790;28;20044;-34
2024/01/04 04:33:45;;;;;;;24.33;10.13;;;;;;;;;;5092655;28;20023;-33
2024/01/04 04:36:12;;;;;;;22.67;8.75;;;;;;;;;;5089947;28;20493;-33
2024/01/04 04:38:40;;;;;;;21.77;8.38;;;;;;;;;;5092401;28;20046;-32
2024/01/04 04:41:08;;;;;;;22.40;8.45;;;;;;;;;;5092738;28;20496;-32
2024/01/04 04:43:35;;;;;;;22.65;8.88;;;;;;;;;;5092988;28;20024;-32
2024/01/04 04:46:08;;;;;;;19.45;8.32;;;;;;;;;;5092817;28;20028;-32
2024/01/04 04:48:36;;;;;;;20.13;8.40;;;;;;;;;;5092610;28;20052;-32
2024/01/04 04:51:03;;;;;;;20.60;7.78;;;;;;;;;;5092157;28;20119;-32
2024/01/04 04:53:30;;;;;;;20.83;8.40;;;;;;;;;;5092697;28;20069;-32
2024/01/04 04:55:57;;;;;;;21.73;8.27;;;;;;;;;;5092590;28;20107;-32
2024/01/04 04:58:24;;;;;;;20.33;7.60;;;;;;;;;;5092717;28;20036;-32
2024/01/04 05:00:51;;;;;;;17.52;7.85;;;;;;;;;;5092681;28;20028;-32
2024/01/04 05:03:18;;;;;;;22.40;8.30;;;;;;;;;;5092910;28;20386;-32
2024/01/04 05:05:45;;;;;;;20.67;7.47;;;;;;;;;;5092409;28;20035;-32
2024/01/04 05:08:12;;;;;;;19.45;7.82;;;;;;;;;;5092598;28;20024;-32
2024/01/04 05:10:39;;;;;;;19.73;8.00;;;;;;;;;;5092461;28;20115;-32
2024/01/04 05:13:06;;;;;;;19.27;8.02;;;;;;;;;;5092483;28;20445;-32
2024/01/04 05:15:33;;;;;;;21.88;7.40;;;;;;;;;;5092477;28;20112;-32
2024/01/04 05:18:00;;;;;;;19.45;7.68;;;;;;;;;;5092003;28;20523;-32
2024/01/04 05:20:27;;;;;;;16.42;6.68;;;;;;;;;;5092235;28;20110;-32
2024/01/04 05:22:54;;;;;;;14.70;5.53;;;;;;;;;;5092155;28;20040;-32
2024/01/04 05:25:21;;;;;;;15.60;5.78;;;;;;;;;;5092283;28;20077;-32
2024/01/04 05:27:48;;;;;;;17.10;5.68;;;;;;;;;;5092284;28;20027;-32
2024/01/04 05:30:15;;;;;;;16.05;5.70;;;;;;;;;;5092061;28;20028;-32
2024/01/04 05:32:42;;;;;;;15.18;5.53;;;;;;;;;;5092030;28;20020;-32
2024/01/04 05:35:11;;;;;;;11.70;5.38;;;;;;;;;;5092134;28;20020;-32
2024/01/04 05:37:39;;;;;;;13.55;5.32;;;;;;;;;;5091937;28;20169;-32
2024/01/04 05:40:06;;;;;;;12.30;5.38;;;;;;;;;;5091967;28;20020;-32
2024/01/04 05:42:33;;;;;;;12.68;5.30;;;;;;;;;;5091903;28;20043;-32
2024/01/04 05:45:00;;;;;;;12.77;5.22;;;;;;;;;;5091807;28;20028;-32
2024/01/04 05:47:27;;;;;;;13.82;5.57;;;;;;;;;;5091771;28;20498;-32
2024/01/04 05:49:55;;;;;;;13.77;6.20;;;;;;;;;;5091863;28;20038;-32
2024/01/04 05:52:22;;;;;;;13.95;5.70;;;;;;;;;;5091766;28;20043;-32
2024/01/04 05:54:49;;;;;;;13.55;5.32;;;;;;;;;;5091663;28;20050;-32
2024/01/04 05:57:18;;;;;;;11.38;5.43;;;;;;;;;;5091741;28;20027;-32
2024/01/04 05:59:45;;;;;;;9.30;4.65;;;;;;;;;;5073794;28;20085;-32
2024/01/04 06:02:12;;;;;;;9.05;4.13;;;;;;;;;;5090562;28;20127;-32
2024/01/04 06:04:38;;;;;;;12.30;4.72;;;;;;;;;;5091227;28;20020;-32
2024/01/04 06:07:05;;;;;;;10.88;4.70;;;;;;;;;;5091672;28;20477;-32
2024/01/04 06:09:32;;;;;;;10.25;4.47;;;;;;;;;;5091636;28;20032;-32
2024/01/04 06:11:59;;;;;;;9.43;4.22;;;;;;;;;;5091717;28;20028;-32
2024/01/04 06:14:30;;;;;;;11.80;4.93;;;;;;;;;;5091423;28;20035;-32
2024/01/04 06:17:01;;;;;;;11.00;4.10;;;;;;;;;;5091436;28;20046;-32
2024/01/04 06:19:28;;;;;;;10.38;4.25;;;;;;;;;;5091542;28;20119;-32
2024/01/04 06:21:55;;;;;;;10.82;3.60;;;;;;;;;;5091470;28;20077;-32
2024/01/04 06:24:23;;;;;;;10.98;4.03;;;;;;;;;;5091564;28;20024;-32
2024/01/04 06:26:50;;;;;;;11.57;4.43;;;;;;;;;;5091535;28;20036;-32
2024/01/04 06:29:17;;;;;;;10.63;3.95;;;;;;;;;;5091120;28;20058;-34
2024/01/04 06:31:44;;;;;;;8.52;3.45;;;;;;;;;;5091256;28;20036;-33
2024/01/04 06:34:11;;;;;;;9.40;4.10;;;;;;;;;;5091280;28;20049;-32
2024/01/04 06:36:39;;;;;;;8.85;3.88;;;;;;;;;;5091421;28;20067;-33
2024/01/04 06:39:07;;;;;;;10.13;4.40;;;;;;;;;;5091161;28;20040;-33
2024/01/04 06:41:33;;;;;;;8.65;3.75;;;;;;;;;;5091069;28;20034;-34
2024/01/04 06:44:01;;;;;;;9.95;4.30;;;;;;;;;;5091287;28;20039;-33
2024/01/04 06:46:28;;;;;;;8.88;3.88;;;;;;;;;;5090977;28;20060;-34
2024/01/04 06:48:55;;;;;;;9.13;3.80;;;;;;;;;;5091251;28;20042;-34
2024/01/04 06:51:22;;;;;;;10.90;4.13;;;;;;;;;;5091101;28;20515;-34
2024/01/04 06:53:49;;;;;;;7.88;3.70;;;;;;;;;;5091324;28;20030;-33
2024/01/04 06:56:18;;;;;;;8.98;3.67;;;;;;;;;;5091238;28;20028;-33
2024/01/04 06:58:46;;;;;;;8.05;3.58;;;;;;;;;;5090974;28;20036;-34
2024/01/04 07:01:12;;;;;;;6.57;3.42;;;;;;;;;;5090908;28;20514;-33
2024/01/04 07:03:40;;;;;;;7.90;3.40;;;;;;;;;;5091176;28;20024;-32
2024/01/04 07:06:07;;;;;;;9.07;3.60;;;;;;;;;;5091198;28;20020;-32
2024/01/04 07:08:34;;;;;;;9.68;3.67;;;;;;;;;;5091131;28;20032;-32
2024/01/04 07:11:05;;;;;;;8.00;3.40;;;;;;;;;;5090891;28;20105;-32
2024/01/04 07:13:34;;;;;;;6.40;3.10;;;;;;;;;;5090970;28;20059;-32
2024/01/04 07:16:04;;;;;;;5.70;2.92;;;;;;;;;;5093445;28;20071;-32
2024/01/04 07:18:35;;;;;;;6.65;2.95;;;;;;;;;;5094517;28;20039;-32
2024/01/04 07:21:06;;;;;;;7.00;3.47;;;;;;;;;;5094868;28;20359;-32
2024/01/04 07:23:33;;;;;;;8.18;3.22;;;;;;;;;;5094159;28;20044;-32
2024/01/04 07:26:00;;;;;;;6.68;2.78;;;;;;;;;;5094626;28;20504;-32
2024/01/04 07:28:27;;;;;;;7.68;3.30;;;;;;;;;;5094367;28;20071;-32
2024/01/04 07:30:54;;;;;;;6.68;2.90;;;;;;;;;;5094591;28;20359;-32
2024/01/04 07:33:23;;;;;;;5.05;2.85;;;;;;;;;;5094518;28;20032;-33
2024/01/04 07:35:50;;;;;;;5.72;3.00;;;;;;;;;;5094330;28;20039;-32
2024/01/04 07:38:17;;;;;;;8.15;3.20;;;;;;;;;;5094306;28;20032;-32
2024/01/04 07:40:44;;;;;;;5.47;3.05;;;;;;;;;;5094270;28;20032;-32
2024/01/04 07:43:11;;;;;;;7.10;3.08;;;;;;;;;;5093989;28;20547;-32
2024/01/04 07:45:38;;;;;;;5.55;3.00;;;;;;;;;;5094263;28;20158;-32
2024/01/04 07:48:05;;;;;;;5.00;2.47;;;;;;;;;;5094035;28;20040;-32
2024/01/04 07:50:32;;;;;;;5.38;2.50;;;;;;;;;;5093957;28;20034;-32
2024/01/04 07:52:59;;;;;;;5.60;2.60;;;;;;;;;;5094125;28;20030;-32
2024/01/04 07:55:26;;;;;;;6.18;2.40;;;;;;;;;;5094010;28;20027;-32
2024/01/04 07:57:53;;;;;;;4.88;2.70;;;;;;;;;;5093759;28;20036;-32
2024/01/04 08:00:21;;;;;;;6.80;2.67;;;;;;;;;;5093860;28;20059;-32
2024/01/04 08:02:48;;;;;;;6.72;2.63;;;;;;;;;;5093723;28;20103;-32
2024/01/04 08:05:15;;;;;;;4.88;2.40;;;;;;;;;;5093832;28;20036;-32
2024/01/04 08:07:43;;;;;;;6.38;2.53;;;;;;;;;;5093487;28;20036;-32
2024/01/04 08:10:11;;;;;;;4.88;2.40;;;;;;;;;;5093262;28;20114;-33
2024/01/04 08:12:42;;;;;;;4.60;2.38;;;;;;;;;;5093585;28;20032;-32
2024/01/04 08:15:10;;;;;;;5.07;2.50;;;;;;;;;;5093509;28;20097;-32
2024/01/04 08:17:36;;;;;;;3.78;2.22;;;;;;;;;;5093356;28;20135;-32
2024/01/04 08:20:04;;;;;;;3.92;2.53;;;;;;;;;;5093509;28;20040;-32
2024/01/04 08:22:31;;;;;;;5.00;2.55;;;;;;;;;;5093349;28;20043;-32
2024/01/04 08:24:58;;;;;;;5.13;2.40;;;;;;;;;;5093288;28;20036;-32
2024/01/04 08:27:25;;;;;;;5.20;2.38;;;;;;;;;;5092051;28;20035;-32
2024/01/04 08:29:52;;;;;;;4.80;2.45;;;;;;;;;;5093360;28;20024;-32
2024/01/04 08:32:19;;;;;;;5.85;2.45;;;;;;;;;;5093348;28;20027;-32
2024/01/04 08:34:47;;;;;;;5.90;2.65;;;;;;;;;;5093261;28;20028;-32
2024/01/04 08:37:14;;;;;;;4.80;2.28;;;;;;;;;;5092975;28;20118;-32
2024/01/04 08:39:41;;;;;;;5.20;2.40;;;;;;;;;;5092922;28;20032;-32
2024/01/04 08:42:08;;;;;;;5.43;2.42;;;;;;;;;;5092979;28;20024;-32
2024/01/04 08:44:35;;;;;;;5.85;2.38;;;;;;;;;;5093094;28;20035;-32
2024/01/04 08:47:02;;;;;;;3.60;1.98;;;;;;;;;;5092784;28;20059;-32
2024/01/04 08:49:29;;;;;;;4.57;2.20;;;;;;;;;;5092864;28;20100;-32
2024/01/04 08:51:56;;;;;;;4.70;2.45;;;;;;;;;;5092907;28;20741;-32
2024/01/04 08:54:24;;;;;;;4.35;2.10;;;;;;;;;;5092975;28;20394;-32
2024/01/04 08:56:51;;;;;;;4.95;2.15;;;;;;;;;;5092679;28;20020;-32
2024/01/04 08:59:18;;;;;;;5.80;2.38;;;;;;;;;;5092627;28;20522;-32
2024/01/04 09:01:45;;;;;;;4.85;2.10;;;;;;;;;;5092765;28;20477;-32
2024/01/04 09:04:12;;;;;;;4.63;1.80;;;;;;;;;;5092761;28;20031;-32
2024/01/04 09:06:39;;;;;;;3.28;2.10;;;;;;;;;;5092561;28;20121;-32
2024/01/04 09:09:07;;;;;;;6.00;2.38;;;;;;;;;;5092324;28;20024;-32
2024/01/04 09:11:40;;;;;;;4.05;2.25;;;;;;;;;;5092338;28;20115;-32
2024/01/04 09:14:11;;;;;;;4.15;1.90;;;;;;;;;;5092678;28;20440;-32
2024/01/04 09:16:44;;;;;;;5.35;2.17;;;;;;;;;;5092312;28;20055;-32
2024/01/04 09:19:17;;;;;;;4.55;2.17;;;;;;;;;;5092095;28;20059;-32
2024/01/04 09:21:44;;;;;;;6.13;2.28;;;;;;;;;;5092422;28;20024;-32
2024/01/04 09:24:12;;;;;;;4.60;2.13;;;;;;;;;;5092413;28;20092;-32
2024/01/04 09:26:42;;;;;;;4.47;2.40;;;;;;;;;;5092127;28;20024;-32
2024/01/04 09:29:10;;;;;;;4.82;2.05;;;;;;;;;;5092094;28;20032;-32
2024/01/04 09:31:37;;;;;;;5.88;2.08;;;;;;;;;;5092169;28;20085;-32
2024/01/04 09:34:05;;;;;;;4.65;2.08;;;;;;;;;;5092196;28;20102;-32
2024/01/04 09:36:31;;;;;;;4.72;1.88;;;;;;;;;;5091832;28;20056;-32
2024/01/04 09:38:58;;;;;;;3.65;1.80;;;;;;;;;;5091829;28;20043;-32
2024/01/04 09:41:27;;;;;;;4.13;2.00;;;;;;;;;;5092054;28;20032;-32
2024/01/04 09:43:55;;;;;;;7.85;2.05;;;;;;;;;;5092025;28;20111;-32
2024/01/04 09:46:25;;;;;;;5.53;2.28;;;;;;;;;;5091719;28;20035;-32
2024/01/04 09:49:01;;;;;;;4.18;1.75;;;;;;;;;;5091767;28;20047;-32
2024/01/04 09:51:34;;;;;;;4.28;1.95;;;;;;;;;;5091708;28;20059;-32
2024/01/04 09:54:02;;;;;;;7.55;2.25;;;;;;;;;;5091769;28;20036;-32
2024/01/04 09:56:29;;;;;;;4.03;1.95;;;;;;;;;;5091757;28;20061;-32
2024/01/04 09:58:56;;;;;;;3.15;1.63;;;;;;;;;;5091365;28;20468;-32
2024/01/04 10:01:33;;;;;;;4.10;2.00;;;;;;;;;;5091774;28;20024;-32
2024/01/04 10:04:03;;;;;;;3.38;1.80;;;;;;;;;;5091661;28;20036;-32
2024/01/04 10:06:34;;;;;;;3.20;1.80;;;;;;;;;;5091708;28;20032;-32
2024/01/04 10:09:17;;;;;;;3.90;1.92;;;;;;;;;;5091405;28;20859;-32
2024/01/04 10:11:59;;;;;;;4.75;2.15;;;;;;;;;;5091611;28;20043;-32
2024/01/04 10:14:26;;;;;;;3.53;1.60;;;;;;;;;;5091615;28;20031;-32
2024/01/04 10:16:56;;;;;;;4.05;1.75;;;;;;;;;;5091473;28;20031;-32
2024/01/04 10:19:23;;;;;;;3.85;1.80;;;;;;;;;;5091151;28;20379;-32
2024/01/04 10:21:50;;;;;;;4.78;2.13;;;;;;;;;;5091844;28;20473;-32
2024/01/04 10:24:24;;;;;;;5.32;2.13;;;;;;;;;;5091647;28;20474;-32
2024/01/04 10:26:58;;;;;;;3.38;1.70;;;;;;;;;;5091588;28;20020;-32
2024/01/04 10:29:28;;;;;;;3.25;1.80;;;;;;;;;;5091637;28;20366;-32
2024/01/04 10:31:59;;;;;;;3.22;1.85;;;;;;;;;;5091592;28;20032;-32
2024/01/04 10:34:26;;;;;;;3.38;2.00;;;;;;;;;;5091428;28;20024;-32
2024/01/04 10:36:56;;;;;;;3.33;1.75;;;;;;;;;;5091425;28;20025;-32
2024/01/04 10:39:23;;;;;;;3.38;1.75;;;;;;;;;;5091439;28;20607;-32
2024/01/04 10:42:01;;;;;;;3.40;1.80;;;;;;;;;;5091375;28;20067;-32
2024/01/04 10:44:29;;;;;;;4.28;1.70;;;;;;;;;;5091397;28;20432;-32
2024/01/04 10:46:59;;;;;;;3.55;1.80;;;;;;;;;;5091217;28;20513;-32
2024/01/04 10:49:26;;;;;;;4.22;1.60;;;;;;;;;;5091574;28;20501;-32
2024/01/04 10:52:00;;;;;;;3.33;1.67;;;;;;;;;;5095352;28;20028;-32
2024/01/04 10:54:34;;;;;;;5.13;2.05;;;;;;;;;;5095141;28;20036;-32
2024/01/04 10:57:02;;;;;;;3.45;1.67;;;;;;;;;;5095084;28;20551;-32
2024/01/04 10:59:29;;;;;;;4.82;1.88;;;;;;;;;;5094950;28;20028;-32
2024/01/04 11:01:59;;;;;;;3.75;1.85;;;;;;;;;;5095012;28;20024;-32
2024/01/04 11:04:27;;;;;;;5.05;1.80;;;;;;;;;;5095101;28;20492;-32
2024/01/04 11:06:54;;;;;;;4.97;1.60;;;;;;;;;;5095048;28;20107;-32
2024/01/04 11:09:21;;;;;;;3.83;1.90;;;;;;;;;;5094954;28;20020;-32
2024/01/04 11:11:52;;;;;;;4.10;1.77;;;;;;;;;;5094862;28;20024;-32
2024/01/04 11:14:22;;;;;;;5.43;2.00;;;;;;;;;;5094885;28;20081;-32
2024/01/04 11:16:52;;;;;;;4.97;1.67;;;;;;;;;;5094819;28;20431;-32
2024/01/04 11:19:42;;;;;;;3.13;1.42;;;;;;;;;;5094752;28;20115;-32
2024/01/04 11:22:18;;;;;;;5.00;1.65;;;;;;;;;;5084557;28;20032;-32
2024/01/04 11:24:55;;;;;;;4.93;1.75;;;;;;;;;;5094751;28;20107;-32
2024/01/04 11:27:22;;;;;;;3.08;1.80;;;;;;;;;;5094676;28;20034;-32
2024/01/04 11:29:49;;;;;;;8.20;2.13;;;;;;;;;;5094631;28;20496;-32
2024/01/04 11:32:17;;;;;;;6.13;2.30;;;;;;;;;;5094427;28;20058;-32
2024/01/04 11:34:48;;;;;;;5.68;1.92;;;;;;;;;;5094464;28;20765;-32
2024/01/04 11:37:19;;;;;;;5.00;1.83;;;;;;;;;;5094308;28;20093;-32
2024/01/04 11:40:17;;;;;;;6.75;1.80;;;;;;;;;;5094519;28;20298;-32
2024/01/04 11:42:44;;;;;;;3.50;1.63;;;;;;;;;;5050048;28;20036;-32
2024/01/04 11:45:15;;;;;;;4.30;1.70;;;;;;;;;;5094188;28;20040;-32
2024/01/04 11:47:44;;;;;;;4.55;1.75;;;;;;;;;;5093971;28;20068;-32
2024/01/04 11:50:18;;;;;;;7.55;1.95;;;;;;;;;;5075836;28;20074;-32
2024/01/04 11:52:48;;;;;;;5.07;1.70;;;;;;;;;;5094142;28;20103;-32
2024/01/04 11:55:29;;;;;;;7.55;1.95;;;;;;;;;;5094161;28;20032;-32
2024/01/04 11:58:08;;;;;;;3.55;1.60;;;;;;;;;;5093978;28;20039;-32
2024/01/04 12:00:36;;;;;;;5.43;1.70;;;;;;;;;;5093604;28;20509;-32
2024/01/04 12:03:14;;;;;;;6.70;2.05;;;;;;;;;;5093914;28;20127;-32
2024/01/04 12:05:45;;;;;;;6.38;1.65;;;;;;;;;;5093960;28;20024;-32
2024/01/04 12:08:30;;;;;;;6.15;2.05;;;;;;;;;;5093903;28;20028;-32
2024/01/04 12:11:03;;;;;;;4.40;2.05;;;;;;;;;;5093645;28;20125;-32
2024/01/04 12:13:31;;;;;;;4.63;1.73;;;;;;;;;;5068848;28;20036;-32
2024/01/04 12:15:59;;;;;;;5.82;1.90;;;;;;;;;;5093647;28;20101;-32
2024/01/04 12:18:26;;;;;;;5.20;1.75;;;;;;;;;;5093333;28;20137;-32
2024/01/04 12:20:53;;;;;;;5.72;1.75;;;;;;;;;;5093623;28;20086;-32
2024/01/04 12:23:19;;;;;;;6.72;1.70;;;;;;;;;;5093573;28;20082;-32
2024/01/04 12:25:47;;;;;;;6.53;1.83;;;;;;;;;;5093493;28;20474;-32
2024/01/04 12:28:13;;;;;;;5.18;1.75;;;;;;;;;;5093366;28;20027;-32
2024/01/04 12:30:41;;;;;;;6.38;1.98;;;;;;;;;;5093443;28;20385;-32
2024/01/04 12:33:09;;;;;;;3.88;2.05;;;;;;;;;;5092228;28;20429;-33
2024/01/04 12:35:37;;;;;;;7.05;2.10;;;;;;;;;;5092649;28;20429;-33
2024/01/04 12:38:04;;;;;;;7.85;2.30;;;;;;;;;;5092413;28;20040;-33
2024/01/04 12:40:45;;;;;;;8.77;2.20;;;;;;;;;;5092562;28;20035;-32
2024/01/04 12:43:13;;;;;;;8.75;1.95;;;;;;;;;;5089918;28;20040;-33
2024/01/04 12:45:40;;;;;;;7.32;2.13;;;;;;;;;;5092290;28;20044;-33
2024/01/04 12:48:08;;;;;;;7.60;2.00;;;;;;;;;;5092207;28;20043;-33
2024/01/04 12:50:37;;;;;;;8.38;2.50;;;;;;;;;;5092228;28;20024;-33
2024/01/04 12:53:05;;;;;;;8.23;2.47;;;;;;;;;;5092008;28;20035;-33
2024/01/04 12:55:34;;;;;;;6.55;2.13;;;;;;;;;;5092231;28;20040;-32
2024/01/04 12:58:01;;;;;;;7.57;2.42;;;;;;;;;;5091892;28;20091;-33
2024/01/04 13:00:28;;;;;;;8.40;2.00;;;;;;;;;;5092173;28;20068;-32
2024/01/04 13:02:56;;;;;;;10.20;1.90;;;;;;;;;;5092215;28;20028;-33
2024/01/04 13:05:23;;;;;;;6.25;2.03;;;;;;;;;;5091968;28;20032;-32
2024/01/04 13:07:50;;;;;;;7.93;1.98;;;;;;;;;;5091907;28;20393;-32
2024/01/04 13:10:17;;;;;;;9.95;2.13;;;;;;;;;;5091845;28;20036;-33
2024/01/04 13:12:44;;;;;;;8.10;2.35;;;;;;;;;;5091023;28;20039;-32
2024/01/04 13:15:10;;;;;;;8.32;2.38;;;;;;;;;;5091906;28;20067;-33
2024/01/04 13:17:37;;;;;;;11.48;2.38;;;;;;;;;;5091714;28;20031;-32
2024/01/04 13:20:05;;;;;;;10.35;2.47;;;;;;;;;;5088785;28;20084;-37
2024/01/04 13:22:32;;;;;;;11.27;2.38;;;;;;;;;;5087024;28;20020;-37
2024/01/04 13:25:00;;;;;;;6.22;2.00;;;;;;;;;;5091146;28;20024;-33
2024/01/04 13:27:30;;;;;;;12.80;2.17;;;;;;;;;;5091639;28;20422;-36
2024/01/04 13:29:57;;;;;;;7.50;2.20;;;;;;;;;;5091640;28;20529;-36
2024/01/04 13:32:24;;;;;;;9.20;2.50;;;;;;;;;;5090088;28;20397;-35
2024/01/04 13:34:51;;;;;;;7.90;1.90;;;;;;;;;;5090106;28;20032;-36
2024/01/04 13:37:18;;;;;;;12.20;2.28;;;;;;;;;;5091499;28;20032;-33
2024/01/04 13:39:46;;;;;;;13.07;2.20;;;;;;;;;;5091415;28;20028;-33
2024/01/04 13:42:13;;;;;;;11.30;2.45;;;;;;;;;;5089692;28;20024;-33
2024/01/04 13:44:40;;;;;;;16.73;2.53;;;;;;;;;;5091312;28;20028;-33
2024/01/04 13:47:07;;;;;;;13.13;2.22;;;;;;;;;;5091522;28;20124;-34
2024/01/04 13:49:34;;;;;;;11.93;2.40;;;;;;;;;;5090447;28;20488;-32
2024/01/04 13:52:03;;;;;;;10.30;2.30;;;;;;;;;;5090324;28;20020;-35
2024/01/04 13:54:30;;;;;;;13.48;2.63;;;;;;;;;;5091240;28;20058;-34
2024/01/04 13:56:57;;;;;;;5.90;2.10;;;;;;;;;;5091784;28;20103;-34
2024/01/04 13:59:32;;;;;;;7.05;2.72;;;;;;;;;;5091404;28;20032;-34
2024/01/04 14:01:59;;;;;;;9.52;2.10;;;;;;;;;;5091747;28;20457;-34
2024/01/04 14:04:26;;;;;;;8.52;2.00;;;;;;;;;;5090265;28;20043;-33
2024/01/04 14:06:53;;;;;;;6.35;1.80;;;;;;;;;;5091830;28;20077;-33
2024/01/04 14:09:20;;;;;;;7.50;1.80;;;;;;;;;;5091415;28;20024;-33
2024/01/04 14:11:47;;;;;;;5.75;1.98;;;;;;;;;;5091498;28;20036;-33
2024/01/04 14:14:14;;;;;;;7.03;2.10;;;;;;;;;;5090141;28;20032;-33
2024/01/04 14:16:41;;;;;;;7.82;1.90;;;;;;;;;;5091738;28;20036;-33
2024/01/04 14:19:09;;;;;;;8.23;2.40;;;;;;;;;;5091032;28;20030;-36
2024/01/04 14:21:36;;;;;;;7.97;2.00;;;;;;;;;;5088005;28;20520;-36
2024/01/04 14:24:03;;;;;;;7.60;2.25;;;;;;;;;;5089249;28;20144;-37
2024/01/04 14:26:30;;;;;;;5.75;2.03;;;;;;;;;;5094604;28;20023;-34
2024/01/04 14:28:57;;;;;;;9.02;2.70;;;;;;;;;;5095331;28;20020;-33
2024/01/04 14:31:27;;;;;;;9.95;2.38;;;;;;;;;;5094461;28;20032;-33
2024/01/04 14:33:54;;;;;;;7.93;2.10;;;;;;;;;;5094227;28;20031;-33
2024/01/04 14:36:21;;;;;;;6.18;1.92;;;;;;;;;;5093182;28;20024;-33
2024/01/04 14:38:48;;;;;;;8.57;2.10;;;;;;;;;;5094797;28;20078;-33
2024/01/04 14:41:18;;;;;;;8.98;2.35;;;;;;;;;;5094529;28;20056;-34
2024/01/04 14:43:45;;;;;;;5.60;1.80;;;;;;;;;;5091978;28;20512;-36